Time;durP1;ratioP1;P1;durP2;ratioP2;P2;SDS_P1;SDS_P2;PMS_P1;PMS_P2;Temp;Humidity;BMP_temperature;BMP_pressure;BME280_temperature;BME280_humidity;BME280_pressure;Samples;Min_cycle;Max_cycle;Signal;HPM_P1;HPM_P2
2021/05/22 00:01:22;;;;;;;9.10;6.38;;;14.40;81.80;;;;;;5061909;28;20508;-64
2021/05/22 00:03:51;;;;;;;10.90;6.43;;;14.50;80.30;;;;;;5066700;28;20027;-63
2021/05/22 00:06:18;;;;;;;7.20;5.80;;;14.60;79.00;;;;;;5047440;28;20059;-63
2021/05/22 00:08:45;;;;;;;8.55;7.35;;;14.70;78.80;;;;;;5068493;28;20055;-67
2021/05/22 00:11:13;;;;;;;12.90;6.38;;;14.60;77.60;;;;;;5067850;28;20763;-71
2021/05/22 00:13:40;;;;;;;8.77;6.10;;;14.70;78.90;;;;;;5067916;28;20056;-72
2021/05/22 00:16:07;;;;;;;12.65;5.90;;;14.80;79.10;;;;;;5054810;28;20068;-65
2021/05/22 00:18:35;;;;;;;9.52;6.15;;;15.00;77.90;;;;;;5071326;28;20139;-67
2021/05/22 00:21:02;;;;;;;15.48;6.47;;;15.10;77.40;;;;;;5069779;28;20037;-66
2021/05/22 00:23:29;;;;;;;11.15;5.75;;;15.20;77.40;;;;;;5069700;28;20024;-67
2021/05/22 00:25:57;;;;;;;13.80;5.93;;;15.40;76.70;;;;;;5069351;28;20032;-69
2021/05/22 00:28:24;;;;;;;9.35;5.07;;;15.40;76.90;;;;;;5068118;28;20082;-66
2021/05/22 00:30:52;;;;;;;20.05;6.00;;;15.60;74.80;;;;;;5064445;28;20024;-68
2021/05/22 00:33:19;;;;;;;11.18;5.85;;;15.70;75.10;;;;;;5069786;28;20108;-68
2021/05/22 00:35:46;;;;;;;8.27;4.13;;;15.90;75.30;;;;;;5062487;28;20025;-67
2021/05/22 00:38:14;;;;;;;8.80;4.68;;;16.10;71.40;;;;;;5069267;28;20043;-68
2021/05/22 00:40:41;;;;;;;9.60;4.68;;;16.30;71.90;;;;;;5069846;28;21437;-66
2021/05/22 00:43:08;;;;;;;9.85;4.35;;;16.40;71.70;;;;;;5070030;28;20107;-68
2021/05/22 00:45:36;;;;;;;8.18;4.18;;;16.60;71.50;;;;;;5069501;28;20060;-67
2021/05/22 00:48:04;;;;;;;6.93;3.67;;;16.70;69.30;;;;;;5069810;28;20052;-71
2021/05/22 00:50:35;;;;;;;7.70;3.80;;;16.80;70.00;;;;;;5065515;28;20131;-64
2021/05/22 00:53:06;;;;;;;7.90;3.70;;;17.00;68.50;;;;;;5060414;28;20032;-72
2021/05/22 00:55:34;;;;;;;6.47;3.72;;;17.20;69.70;;;;;;5068929;28;20017;-72
2021/05/22 00:58:03;;;;;;;11.98;3.90;;;17.30;69.00;;;;;;5062301;28;20032;-67
2021/05/22 01:00:46;;;;;;;6.75;4.07;;;17.50;66.70;;;;;;5359764;22;20500;-69
2021/05/22 01:06:24;;;;;;;10.93;3.30;;;17.70;63.60;;;;;;5232715;23;20041;-70
2021/05/22 01:09:07;;;;;;;7.47;2.90;;;17.80;63.90;;;;;;5070921;28;20288;-69
2021/05/22 01:11:43;;;;;;;;;;;17.90;60.50;;;;;;5062623;28;20712;-71
2021/05/22 01:14:38;;;;;;;10.68;3.80;;;17.90;62.30;;;;;;5071265;28;20307;-69
2021/05/22 01:17:06;;;;;;;8.48;3.55;;;18.00;60.20;;;;;;5054724;28;20028;-72
2021/05/22 01:19:41;;;;;;;6.88;3.55;;;18.00;61.10;;;;;;5065150;28;20021;-67
2021/05/22 01:22:10;;;;;;;14.82;8.93;;;18.00;62.70;;;;;;5070941;28;20050;-69
2021/05/22 01:25:14;;;;;;;12.05;3.78;;;18.20;63.20;;;;;;5053643;28;20028;-71
2021/05/22 01:27:41;;;;;;;10.68;3.88;;;18.40;60.80;;;;;;5066002;28;20049;-66
2021/05/22 01:30:09;;;;;;;9.95;2.63;;;18.60;60.20;;;;;;5001147;28;20037;-68
2021/05/22 01:32:37;;;;;;;6.50;2.65;;;18.60;58.10;;;;;;5032213;28;20047;-67
2021/05/22 01:35:05;;;;;;;8.88;4.55;;;18.70;56.40;;;;;;5031341;28;20087;-67
2021/05/22 01:37:38;;;;;;;9.30;3.35;;;18.70;57.90;;;;;;5029761;28;20032;-68
2021/05/22 01:40:07;;;;;;;7.05;2.80;;;18.80;56.80;;;;;;5022597;28;20036;-68
2021/05/22 01:42:37;;;;;;;7.10;2.50;;;18.90;57.00;;;;;;5031670;28;20025;-70
2021/05/22 01:45:26;;;;;;;5.90;2.20;;;18.90;56.80;;;;;;5031776;28;20056;-69
2021/05/22 01:47:54;;;;;;;9.75;2.70;;;19.00;57.60;;;;;;5031684;28;20025;-71
2021/05/22 01:50:23;;;;;;;7.63;2.20;;;19.10;58.20;;;;;;5029208;28;20025;-68
2021/05/22 01:52:56;;;;;;;10.13;3.35;;;19.10;56.70;;;;;;5016884;28;20493;-67
2021/05/22 01:55:26;;;;;;;8.48;2.38;;;19.30;56.90;;;;;;5024705;28;20033;-71
2021/05/22 01:57:55;;;;;;;5.45;2.78;;;19.40;56.70;;;;;;5024916;28;20032;-71
2021/05/22 02:00:23;;;;;;;8.18;2.28;;;19.70;56.70;;;;;;5021714;28;20497;-66
2021/05/22 02:03:09;;;;;;;7.80;2.28;;;19.70;55.00;;;;;;5033625;28;20037;-67
2021/05/22 02:05:37;;;;;;;7.00;2.00;;;19.90;56.90;;;;;;5026752;28;20046;-69
2021/05/22 02:08:07;;;;;;;7.25;2.40;;;20.00;55.80;;;;;;4679946;28;9999867;-68
2021/05/22 02:10:35;;;;;;;3.17;1.70;;;20.00;55.50;;;;;;5024866;28;20021;-68
2021/05/22 02:13:03;;;;;;;10.20;2.75;;;20.00;55.10;;;;;;5029614;28;20045;-70
2021/05/22 02:15:31;;;;;;;6.93;3.08;;;20.10;55.40;;;;;;5027706;28;20071;-68
2021/05/22 02:17:59;;;;;;;6.35;2.30;;;20.30;55.20;;;;;;5035119;28;20013;-68
2021/05/22 02:20:27;;;;;;;8.35;1.83;;;20.30;55.20;;;;;;5037665;28;20040;-68
2021/05/22 02:22:56;;;;;;;7.07;2.38;;;20.20;54.90;;;;;;5035456;28;20524;-66
2021/05/22 02:25:23;;;;;;;4.32;2.10;;;20.30;55.90;;;;;;5027878;28;20033;-67
2021/05/22 02:27:51;;;;;;;6.32;1.77;;;20.40;54.20;;;;;;5029538;28;20025;-67
2021/05/22 02:30:19;;;;;;;9.27;2.20;;;20.30;54.40;;;;;;5028209;28;20036;-68
2021/05/22 02:32:49;;;;;;;5.95;1.90;;;20.20;55.90;;;;;;5029403;28;20417;-72
2021/05/22 02:35:19;;;;;;;7.30;2.20;;;20.50;54.70;;;;;;5029855;28;20025;-71
2021/05/22 02:37:50;;;;;;;;;;;20.60;55.20;;;;;;4335524;28;10000740;-73
2021/05/22 02:40:22;;;;;;;6.57;1.88;;;20.50;54.50;;;;;;5028897;28;19913;-69
2021/05/22 02:42:59;;;;;;;4.60;2.17;;;20.50;54.20;;;;;;5022764;28;20124;-72
2021/05/22 02:45:29;;;;;;;7.45;1.80;;;20.40;54.60;;;;;;5024624;28;20407;-70
2021/05/22 02:47:57;;;;;;;3.63;1.80;;;20.50;54.70;;;;;;5027434;28;20029;-68
2021/05/22 02:50:26;;;;;;;7.93;2.00;;;20.70;54.00;;;;;;5030040;28;20036;-73
2021/05/22 02:52:55;;;;;;;4.25;1.50;;;20.70;52.60;;;;;;5027752;28;20376;-67
2021/05/22 02:55:22;;;;;;;7.35;2.15;;;20.70;53.70;;;;;;5026155;28;20025;-66
2021/05/22 02:57:51;;;;;;;7.68;1.83;;;20.60;55.30;;;;;;5026437;28;20068;-69
2021/05/22 03:00:20;;;;;;;4.80;1.75;;;20.60;54.50;;;;;;5028027;28;20052;-67
2021/05/22 03:02:48;;;;;;;8.23;1.83;;;20.60;55.30;;;;;;5027693;28;20092;-66
2021/05/22 03:05:17;;;;;;;6.70;1.98;;;20.60;56.00;;;;;;5026418;28;20072;-68
2021/05/22 03:07:44;;;;;;;5.45;1.58;;;20.70;54.50;;;;;;5027276;28;20092;-67
2021/05/22 03:10:12;;;;;;;4.03;1.48;;;20.80;55.30;;;;;;5028692;28;20129;-70
2021/05/22 03:12:39;;;;;;;8.00;2.03;;;20.80;53.70;;;;;;5026903;28;20041;-68
2021/05/22 03:15:08;;;;;;;7.95;2.30;;;21.00;54.70;;;;;;5028018;28;20091;-73
2021/05/22 03:17:36;;;;;;;5.35;1.67;;;20.90;53.30;;;;;;5011315;28;20037;-69
2021/05/22 03:20:05;;;;;;;5.10;1.73;;;21.00;55.00;;;;;;5022079;28;20485;-69
2021/05/22 03:22:33;;;;;;;7.68;1.90;;;21.00;53.90;;;;;;5027790;28;20044;-75
2021/05/22 03:25:00;;;;;;;5.28;1.73;;;21.10;55.20;;;;;;5027447;28;20033;-74
2021/05/22 03:27:27;;;;;;;5.03;1.80;;;21.20;53.10;;;;;;5024644;28;20115;-72
2021/05/22 03:29:54;;;;;;;6.35;1.55;;;21.10;52.80;;;;;;5025985;28;20053;-74
2021/05/22 03:32:21;;;;;;;3.92;1.60;;;21.10;51.90;;;;;;5025717;28;20030;-73
2021/05/22 03:34:48;;;;;;;6.15;2.22;;;20.80;52.60;;;;;;5025473;28;20053;-71
2021/05/22 03:37:15;;;;;;;4.57;2.00;;;20.60;53.80;;;;;;5025825;28;20389;-70
2021/05/22 03:39:43;;;;;;;9.23;2.40;;;20.50;54.10;;;;;;5024242;28;20022;-69
2021/05/22 03:42:10;;;;;;;5.35;2.05;;;20.70;54.90;;;;;;5028847;28;20067;-73
2021/05/22 03:44:37;;;;;;;8.75;2.13;;;20.80;54.30;;;;;;5030662;28;20029;-74
2021/05/22 03:47:04;;;;;;;6.85;1.92;;;20.90;54.60;;;;;;5029081;28;20032;-75
2021/05/22 03:49:31;;;;;;;10.02;2.15;;;21.00;52.80;;;;;;5030142;28;20040;-73
2021/05/22 03:51:58;;;;;;;7.45;2.60;;;21.10;53.90;;;;;;5031464;28;20023;-75
2021/05/22 03:54:25;;;;;;;3.90;1.58;;;21.00;54.90;;;;;;5031183;28;20104;-75
2021/05/22 03:56:52;;;;;;;5.13;1.92;;;21.20;54.00;;;;;;5033017;28;20013;-71
2021/05/22 03:59:19;;;;;;;5.63;1.77;;;21.30;53.40;;;;;;5031721;28;20022;-74
2021/05/22 04:01:46;;;;;;;4.80;1.95;;;21.40;51.60;;;;;;5032026;28;20021;-70
2021/05/22 04:04:13;;;;;;;4.57;1.55;;;21.40;52.00;;;;;;5030812;28;20485;-74
2021/05/22 04:06:41;;;;;;;4.18;1.83;;;21.40;52.50;;;;;;5021249;28;20363;-70
2021/05/22 04:09:08;;;;;;;11.57;2.70;;;21.50;53.50;;;;;;5027906;28;20504;-70
2021/05/22 04:11:35;;;;;;;5.95;2.30;;;21.50;53.40;;;;;;5029524;28;20051;-69
2021/05/22 04:14:06;;;;;;;9.10;2.20;;;21.70;53.40;;;;;;5027164;28;20084;-68
2021/05/22 04:16:33;;;;;;;5.32;2.17;;;21.70;53.50;;;;;;5028227;28;20029;-71
2021/05/22 04:19:02;;;;;;;7.60;2.60;;;21.80;53.20;;;;;;5030577;28;20825;-71
2021/05/22 04:21:30;;;;;;;6.45;2.42;;;21.80;50.90;;;;;;5030553;28;20026;-69
2021/05/22 04:23:57;;;;;;;4.65;1.83;;;21.70;51.40;;;;;;5032761;28;20026;-67
2021/05/22 04:26:24;;;;;;;4.00;2.05;;;21.60;52.40;;;;;;5031814;28;20021;-70
2021/05/22 04:28:51;;;;;;;6.65;2.25;;;21.50;52.00;;;;;;5030694;28;20065;-66
2021/05/22 04:31:18;;;;;;;5.40;1.88;;;21.50;53.00;;;;;;5029924;28;20437;-68
2021/05/22 04:33:45;;;;;;;6.82;2.10;;;21.50;52.60;;;;;;5028800;28;20559;-67
2021/05/22 04:36:12;;;;;;;4.82;2.45;;;21.50;52.00;;;;;;5028592;28;20040;-68
2021/05/22 04:38:39;;;;;;;26.33;19.75;;;21.60;53.20;;;;;;5028887;28;20021;-66
2021/05/22 04:41:06;;;;;;;6.85;2.25;;;21.60;53.20;;;;;;5027884;28;20021;-69
2021/05/22 04:43:33;;;;;;;5.47;2.00;;;21.70;52.30;;;;;;5032650;28;20048;-68
2021/05/22 04:46:00;;;;;;;8.23;2.08;;;21.80;51.80;;;;;;5031960;28;20037;-69
2021/05/22 04:48:27;;;;;;;4.72;1.67;;;21.70;50.70;;;;;;5031904;28;20026;-66
2021/05/22 04:50:55;;;;;;;4.82;1.70;;;21.50;52.10;;;;;;5032044;28;20021;-70
2021/05/22 04:53:25;;;;;;;6.35;2.20;;;21.20;53.10;;;;;;5031152;28;20096;-66
2021/05/22 04:55:52;;;;;;;7.38;1.70;;;21.20;52.30;;;;;;5032503;28;20021;-66
2021/05/22 04:58:19;;;;;;;4.75;1.63;;;21.20;53.10;;;;;;5032315;28;20029;-68
2021/05/22 05:00:46;;;;;;;7.53;2.22;;;21.30;52.10;;;;;;5032824;28;20021;-67
2021/05/22 05:03:13;;;;;;;6.13;2.25;;;21.30;52.00;;;;;;5029019;28;20041;-67
2021/05/22 05:05:41;;;;;;;4.45;1.48;;;21.30;51.60;;;;;;5030330;28;20069;-67
2021/05/22 05:08:08;;;;;;;3.50;1.52;;;21.30;53.30;;;;;;5032469;28;20020;-69
2021/05/22 05:10:35;;;;;;;3.90;1.95;;;21.50;51.10;;;;;;5030828;28;20450;-68
2021/05/22 05:13:02;;;;;;;12.30;7.75;;;21.40;52.30;;;;;;5032804;28;20100;-67
2021/05/22 05:15:29;;;;;;;5.75;2.28;;;21.60;52.90;;;;;;5031920;28;20033;-68
2021/05/22 05:17:56;;;;;;;5.97;2.83;;;21.60;52.80;;;;;;5030085;28;20167;-69
2021/05/22 05:20:23;;;;;;;8.15;2.67;;;21.60;53.10;;;;;;5032330;28;20018;-65
2021/05/22 05:22:51;;;;;;;5.72;2.22;;;21.70;53.50;;;;;;5032089;28;20026;-66
2021/05/22 05:25:18;;;;;;;8.85;1.80;;;21.60;53.40;;;;;;5029631;28;20096;-68
2021/05/22 05:27:45;;;;;;;7.38;2.65;;;21.80;52.80;;;;;;5033101;28;20017;-68
2021/05/22 05:30:13;;;;;;;6.72;2.47;;;21.80;53.10;;;;;;5030718;28;20028;-67
2021/05/22 05:32:39;;;;;;;5.72;2.55;;;21.80;53.00;;;;;;5032261;28;20017;-67
2021/05/22 05:35:09;;;;;;;5.88;2.60;;;21.90;52.30;;;;;;5032119;28;20036;-67
2021/05/22 05:37:39;;;;;;;10.20;2.60;;;21.90;54.00;;;;;;5030549;28;21124;-67
2021/05/22 05:40:08;;;;;;;4.85;2.00;;;22.10;51.90;;;;;;5032108;28;20068;-66
2021/05/22 05:42:35;;;;;;;5.32;2.20;;;21.90;53.30;;;;;;5032712;28;20030;-64
2021/05/22 05:45:04;;;;;;;4.68;2.28;;;22.00;52.90;;;;;;5031697;28;20116;-69
2021/05/22 05:47:31;;;;;;;6.35;1.98;;;22.00;52.80;;;;;;5029934;28;20128;-69
2021/05/22 05:50:19;;;;;;;7.53;2.13;;;21.80;52.10;;;;;;5029949;28;20021;-70
2021/05/22 05:52:49;;;;;;;8.45;2.47;;;21.20;54.30;;;;;;5033297;28;20021;-66
2021/05/22 05:55:17;;;;;;;5.57;2.15;;;20.60;55.30;;;;;;5033211;28;20789;-72
2021/05/22 05:57:47;;;;;;;6.88;2.50;;;20.20;56.60;;;;;;5030425;28;20056;-70
2021/05/22 06:00:23;;;;;;;6.85;2.00;;;19.80;58.50;;;;;;5032555;28;20021;-70
2021/05/22 06:02:51;;;;;;;5.18;1.88;;;19.50;59.60;;;;;;5032651;28;20100;-69
2021/05/22 06:05:18;;;;;;;5.57;2.72;;;19.30;60.40;;;;;;5031642;28;20090;-73
2021/05/22 06:07:54;;;;;;;6.30;1.80;;;19.20;60.70;;;;;;5031397;28;20021;-70
2021/05/22 06:10:24;;;;;;;5.20;2.13;;;19.10;60.30;;;;;;5035682;28;20033;-68
2021/05/22 06:13:03;;;;;;;7.13;2.10;;;19.00;62.30;;;;;;5030583;28;20029;-69
2021/05/22 06:15:35;;;;;;;4.25;2.08;;;18.80;61.80;;;;;;5030814;28;20055;-71
2021/05/22 06:18:08;;;;;;;16.83;10.50;;;18.80;62.70;;;;;;5029825;28;20022;-71
2021/05/22 06:20:43;;;;;;;8.88;4.07;;;18.80;62.80;;;;;;5031202;28;20044;-66
2021/05/22 06:23:10;;;;;;;4.03;1.88;;;18.80;61.60;;;;;;5031770;28;20033;-68
2021/05/22 06:25:37;;;;;;;6.47;2.58;;;18.90;62.30;;;;;;5031255;28;20045;-70
2021/05/22 06:28:04;;;;;;;6.68;1.60;;;18.90;61.60;;;;;;5031231;28;20056;-69
2021/05/22 06:30:31;;;;;;;5.78;2.42;;;18.60;62.60;;;;;;5031221;28;20041;-70
2021/05/22 06:32:58;;;;;;;6.35;2.25;;;18.50;63.80;;;;;;5029068;28;20462;-71
2021/05/22 06:35:25;;;;;;;4.00;1.80;;;18.50;63.70;;;;;;5027524;28;20501;-72
2021/05/22 06:37:52;;;;;;;5.53;1.98;;;18.60;63.40;;;;;;5029793;28;20401;-72
2021/05/22 06:40:19;;;;;;;4.88;2.20;;;18.70;63.10;;;;;;5030770;28;20029;-70
2021/05/22 06:42:52;;;;;;;7.32;2.63;;;18.70;63.30;;;;;;5032189;28;20021;-74
2021/05/22 06:45:21;;;;;;;4.95;1.92;;;18.60;63.50;;;;;;5029905;28;20025;-69
2021/05/22 06:47:49;;;;;;;3.63;2.20;;;18.20;64.90;;;;;;5031391;28;20485;-72
2021/05/22 06:50:16;;;;;;;5.25;2.40;;;18.00;66.10;;;;;;5031248;28;20470;-70
2021/05/22 06:52:43;;;;;;;6.35;2.50;;;17.60;68.00;;;;;;5030296;28;20063;-71
2021/05/22 06:55:10;;;;;;;6.45;2.45;;;17.30;69.20;;;;;;5030735;28;20386;-70
2021/05/22 06:57:37;;;;;;;6.38;2.63;;;17.10;70.50;;;;;;5021893;28;20021;-73
2021/05/22 07:00:06;;;;;;;6.32;2.15;;;16.80;71.20;;;;;;5030386;28;20034;-68
2021/05/22 07:02:33;;;;;;;3.58;2.15;;;16.60;72.10;;;;;;5024598;28;20033;-68
2021/05/22 07:05:00;;;;;;;7.28;2.40;;;16.30;73.10;;;;;;5026076;28;20049;-68
2021/05/22 07:07:27;;;;;;;4.80;2.72;;;16.20;73.40;;;;;;5028464;28;20017;-70
2021/05/22 07:09:54;;;;;;;7.43;2.78;;;16.10;75.00;;;;;;5028406;28;20378;-68
2021/05/22 07:12:21;;;;;;;7.43;2.42;;;15.90;75.10;;;;;;5026615;28;20026;-67
2021/05/22 07:14:47;;;;;;;6.55;2.28;;;15.70;76.10;;;;;;5025051;28;20029;-72
2021/05/22 07:17:14;;;;;;;8.77;2.58;;;15.60;76.70;;;;;;5025815;28;20032;-71
2021/05/22 07:19:41;;;;;;;12.68;2.80;;;15.50;77.60;;;;;;5024745;28;20086;-72
2021/05/22 07:22:09;;;;;;;7.40;2.60;;;15.30;78.10;;;;;;5025989;28;20389;-68
2021/05/22 07:24:36;;;;;;;9.70;2.78;;;15.20;78.10;;;;;;5026243;28;20025;-70
2021/05/22 07:27:03;;;;;;;5.78;2.78;;;15.10;78.50;;;;;;5028642;28;20035;-68
2021/05/22 07:29:30;;;;;;;7.05;2.58;;;15.00;79.70;;;;;;5027754;28;20024;-69
2021/05/22 07:31:58;;;;;;;5.40;2.72;;;14.80;80.30;;;;;;5028253;28;20018;-69
2021/05/22 07:34:25;;;;;;;7.30;2.50;;;14.70;81.70;;;;;;5027031;28;20041;-69
2021/05/22 07:36:52;;;;;;;8.35;3.13;;;14.60;82.30;;;;;;5028427;28;20477;-70
2021/05/22 07:39:19;;;;;;;4.95;2.60;;;14.50;83.50;;;;;;5020880;28;20017;-73
2021/05/22 07:41:47;;;;;;;7.88;2.50;;;14.50;83.70;;;;;;5026027;28;20049;-74
2021/05/22 07:44:15;;;;;;;6.57;2.88;;;14.30;84.30;;;;;;4675413;28;10000074;-69
2021/05/22 07:46:42;;;;;;;9.27;3.08;;;14.20;84.90;;;;;;5027772;28;20013;-68
2021/05/22 07:49:12;;;;;;;6.97;2.95;;;14.10;85.80;;;;;;5025744;28;20025;-73
2021/05/22 07:51:43;;;;;;;8.38;3.53;;;14.10;86.10;;;;;;5026216;28;20045;-72
2021/05/22 07:54:10;;;;;;;7.43;2.75;;;14.00;86.80;;;;;;5027266;28;20026;-71
2021/05/22 07:56:37;;;;;;;3.80;2.70;;;14.00;87.60;;;;;;5027052;28;20108;-68
2021/05/22 07:59:04;;;;;;;9.00;3.55;;;13.90;87.90;;;;;;5027108;28;20087;-72
2021/05/22 08:01:35;;;;;;;5.20;2.50;;;13.80;87.90;;;;;;5026342;28;20032;-73
2021/05/22 08:04:02;;;;;;;5.50;2.95;;;13.70;88.50;;;;;;5018979;28;20486;-67
2021/05/22 08:06:29;;;;;;;10.02;3.60;;;13.70;89.30;;;;;;5025554;28;20113;-70
2021/05/22 08:08:56;;;;;;;7.50;3.63;;;13.60;89.60;;;;;;5025739;28;20056;-73
2021/05/22 08:11:22;;;;;;;6.03;3.22;;;13.60;90.10;;;;;;5027229;28;20022;-70
2021/05/22 08:13:49;;;;;;;6.40;3.30;;;13.50;90.30;;;;;;5026331;28;20075;-73
2021/05/22 08:16:16;;;;;;;7.68;3.30;;;13.50;90.40;;;;;;5026480;28;20033;-70
2021/05/22 08:18:43;;;;;;;9.02;4.50;;;13.50;90.80;;;;;;5027064;28;20355;-68
2021/05/22 08:21:10;;;;;;;7.88;4.25;;;13.50;90.80;;;;;;5024393;28;20124;-69
2021/05/22 08:23:37;;;;;;;9.55;3.88;;;13.60;90.90;;;;;;5025844;28;20401;-71
2021/05/22 08:26:04;;;;;;;6.35;3.70;;;13.50;90.90;;;;;;5027327;28;20877;-69
2021/05/22 08:28:31;;;;;;;8.35;3.70;;;13.50;91.10;;;;;;5028202;28;20029;-69
2021/05/22 08:30:58;;;;;;;8.15;3.58;;;13.50;91.00;;;;;;5029139;28;20025;-71
2021/05/22 08:33:25;;;;;;;10.95;4.13;;;13.50;91.00;;;;;;5029078;28;20029;-71
2021/05/22 08:35:52;;;;;;;7.85;3.90;;;13.40;91.20;;;;;;5028845;28;20440;-76
2021/05/22 08:38:22;;;;;;;9.40;4.03;;;13.30;91.50;;;;;;5028480;28;20052;-72
2021/05/22 08:40:56;;;;;;;8.55;4.15;;;13.30;91.60;;;;;;5027384;28;20029;-72
2021/05/22 08:43:23;;;;;;;8.00;4.78;;;13.20;91.30;;;;;;5027134;28;20033;-71
2021/05/22 08:45:57;;;;;;;9.90;4.15;;;13.20;91.50;;;;;;5029906;28;20026;-72
2021/05/22 08:48:27;;;;;;;12.60;4.40;;;13.10;91.50;;;;;;5028924;28;20493;-72
2021/05/22 08:50:54;;;;;;;10.15;4.38;;;13.00;91.90;;;;;;5029298;28;20496;-71
2021/05/22 08:53:22;;;;;;;13.25;5.22;;;13.00;92.30;;;;;;5029260;28;20083;-73
2021/05/22 08:55:49;;;;;;;9.68;4.93;;;12.90;92.40;;;;;;5027781;28;20024;-76
2021/05/22 08:58:16;;;;;;;12.25;5.05;;;12.90;92.40;;;;;;5030246;28;20029;-73
2021/05/22 09:00:43;;;;;;;11.98;4.70;;;12.90;92.80;;;;;;5028020;28;20026;-78
2021/05/22 09:03:12;;;;;;;10.15;5.00;;;13.00;92.70;;;;;;5027349;28;20139;-72
2021/05/22 09:05:42;;;;;;;10.80;5.30;;;12.90;92.90;;;;;;5027964;28;20123;-73
2021/05/22 09:08:15;;;;;;;11.32;4.72;;;12.90;92.90;;;;;;5028018;28;20179;-73
2021/05/22 09:10:42;;;;;;;;;;;12.90;93.00;;;;;;5030313;28;20396;-72
2021/05/22 09:13:26;;;;;;;12.98;4.75;;;12.80;92.90;;;;;;5026752;28;19916;-75
2021/05/22 09:16:02;;;;;;;12.45;5.25;;;12.80;92.90;;;;;;5026291;28;20021;-76
2021/05/22 09:18:38;;;;;;;8.73;4.72;;;12.70;93.00;;;;;;5027405;28;20022;-71
2021/05/22 09:21:09;;;;;;;9.77;5.20;;;12.70;93.20;;;;;;5027155;28;20021;-72
2021/05/22 09:23:43;;;;;;;17.48;5.75;;;12.70;93.40;;;;;;5026143;28;20101;-70
2021/05/22 09:26:14;;;;;;;14.32;5.97;;;12.60;93.50;;;;;;4692896;28;10000174;-68
2021/05/22 09:28:50;;;;;;;9.80;5.13;;;12.60;93.70;;;;;;5027739;28;20809;-70
2021/05/22 09:31:19;;;;;;;11.93;5.43;;;12.50;93.90;;;;;;5025590;28;20071;-74
2021/05/22 09:33:47;;;;;;;8.68;5.20;;;12.50;94.10;;;;;;5024998;28;20136;-73
2021/05/22 09:36:15;;;;;;;14.57;6.03;;;12.50;93.90;;;;;;5024046;28;20029;-69
2021/05/22 09:38:50;;;;;;;11.68;5.55;;;12.50;93.70;;;;;;5019995;28;20014;-74
2021/05/22 09:41:22;;;;;;;11.95;5.57;;;12.50;93.90;;;;;;5027897;28;20470;-71
2021/05/22 09:44:08;;;;;;;14.02;6.00;;;12.40;94.10;;;;;;5027875;28;20038;-71
2021/05/22 09:46:55;;;;;;;18.73;6.43;;;12.40;94.30;;;;;;5028524;28;20053;-73
2021/05/22 09:49:28;;;;;;;10.43;6.00;;;12.40;94.30;;;;;;5021726;28;20029;-73
2021/05/22 09:52:08;;;;;;;13.95;5.88;;;12.40;94.30;;;;;;5024329;28;20402;-72
2021/05/22 09:54:50;;;;;;;10.68;6.18;;;12.30;94.30;;;;;;5022748;28;20041;-68
2021/05/22 09:57:20;;;;;;;11.20;5.70;;;12.30;94.20;;;;;;5022163;28;20033;-74
2021/05/22 10:00:14;;;;;;;13.45;5.70;;;12.30;94.50;;;;;;5024840;28;20071;-69
2021/05/22 10:02:46;;;;;;;14.45;5.70;;;12.20;94.40;;;;;;5012791;28;20068;-67
2021/05/22 10:05:24;;;;;;;15.30;6.53;;;12.20;94.70;;;;;;5023873;28;20113;-73
2021/05/22 10:07:53;;;;;;;12.20;6.40;;;12.20;94.80;;;;;;5017834;28;20505;-72
2021/05/22 10:10:21;;;;;;;11.02;6.10;;;12.20;94.70;;;;;;5023840;28;20053;-69
2021/05/22 10:12:49;;;;;;;12.20;6.30;;;12.20;94.70;;;;;;5023161;28;20120;-71
2021/05/22 10:15:18;;;;;;;19.13;7.40;;;12.20;95.10;;;;;;5022486;28;20037;-67
2021/05/22 10:17:46;;;;;;;11.68;7.22;;;12.10;95.10;;;;;;5023097;28;20025;-70
2021/05/22 10:20:14;;;;;;;14.40;7.05;;;12.10;95.20;;;;;;5022719;28;20044;-74
2021/05/22 10:22:43;;;;;;;15.68;7.55;;;12.10;95.10;;;;;;5022899;28;20025;-77
2021/05/22 10:25:11;;;;;;;14.38;7.10;;;12.10;95.20;;;;;;5023147;28;20033;-74
2021/05/22 10:27:38;;;;;;;14.65;7.47;;;12.10;95.30;;;;;;5022196;28;20132;-71
2021/05/22 10:30:08;;;;;;;18.23;7.47;;;12.00;95.40;;;;;;5022335;28;20862;-71
2021/05/22 10:32:37;;;;;;;13.38;8.43;;;12.00;95.40;;;;;;5022036;28;20501;-71
2021/05/22 10:35:12;;;;;;;18.48;7.40;;;12.00;95.70;;;;;;5023227;28;20025;-72
2021/05/22 10:37:46;;;;;;;18.05;7.68;;;12.00;95.60;;;;;;5022919;28;20030;-69
2021/05/22 10:40:15;;;;;;;15.55;8.63;;;12.00;95.50;;;;;;5020652;28;20234;-73
2021/05/22 10:42:51;;;;;;;13.05;8.07;;;12.00;95.30;;;;;;5021303;28;20052;-74
2021/05/22 10:45:38;;;;;;;13.80;7.70;;;12.00;95.00;;;;;;5019821;28;20068;-74
2021/05/22 10:48:26;;;;;;;17.20;8.23;;;11.90;95.30;;;;;;5022107;28;20035;-74
2021/05/22 10:50:54;;;;;;;15.10;7.30;;;11.80;95.40;;;;;;5023724;28;20159;-72
2021/05/22 10:53:33;;;;;;;26.77;17.60;;;11.60;95.60;;;;;;5024163;28;20108;-72
2021/05/22 10:56:15;;;;;;;16.98;12.38;;;11.50;95.60;;;;;;5022109;28;20209;-75
2021/05/22 10:59:01;;;;;;;18.98;9.88;;;11.30;95.80;;;;;;5022910;28;20099;-72
2021/05/22 11:01:35;;;;;;;16.73;9.50;;;11.20;95.50;;;;;;5022069;28;20144;-75
2021/05/22 11:04:07;;;;;;;20.05;10.60;;;11.20;95.90;;;;;;5021800;28;20025;-74
2021/05/22 11:07:16;;;;;;;23.77;11.80;;;11.30;96.00;;;;;;5017903;28;20782;-73
2021/05/22 11:09:44;;;;;;;19.08;10.80;;;11.20;96.10;;;;;;5023509;28;20254;-73
2021/05/22 11:12:15;;;;;;;23.00;10.80;;;11.10;96.00;;;;;;5022829;28;20532;-75
2021/05/22 11:17:28;;;;;;;22.90;9.90;;;11.10;96.40;;;;;;5018957;28;20025;-70
2021/05/22 11:20:05;;;;;;;15.70;8.75;;;11.30;96.30;;;;;;5020091;28;20025;-76
2021/05/22 11:22:41;;;;;;;20.30;9.25;;;11.30;96.50;;;;;;5019484;28;20029;-73
2021/05/22 11:25:18;;;;;;;23.92;13.00;;;11.40;96.30;;;;;;5021865;28;20083;-71
2021/05/22 11:27:59;;;;;;;15.77;9.20;;;11.40;95.80;;;;;;5019835;28;20075;-73
2021/05/22 11:30:35;;;;;;;16.08;10.02;;;11.40;95.80;;;;;;5020636;28;20049;-69
2021/05/22 11:33:03;;;;;;;20.42;10.75;;;11.40;95.30;;;;;;5021669;28;20021;-74
2021/05/22 11:35:34;;;;;;;16.35;11.18;;;11.40;95.70;;;;;;5019044;28;20120;-71
2021/05/22 11:38:13;;;;;;;20.40;11.10;;;11.40;95.40;;;;;;5022411;28;20041;-75
2021/05/22 11:40:44;;;;;;;17.63;10.38;;;11.40;95.30;;;;;;5019353;28;20038;-73
2021/05/22 11:43:20;;;;;;;17.42;11.13;;;11.40;95.10;;;;;;5021268;28;20034;-74
2021/05/22 11:45:54;;;;;;;19.83;9.98;;;11.30;94.90;;;;;;5024760;28;20029;-70
2021/05/22 11:48:33;;;;;;;14.98;9.05;;;11.40;94.60;;;;;;5023398;28;20029;-69
2021/05/22 11:51:10;;;;;;;20.52;10.27;;;11.40;94.70;;;;;;5018233;28;20053;-69
2021/05/22 11:53:42;;;;;;;15.63;9.63;;;11.40;94.40;;;;;;5019076;28;20025;-75
2021/05/22 11:56:14;;;;;;;16.67;9.70;;;11.30;94.60;;;;;;5022088;28;20484;-71
2021/05/22 11:58:44;;;;;;;;;;;11.20;94.30;;;;;;5023531;28;20029;-72
2021/05/22 12:01:16;;;;;;;17.35;10.13;;;11.00;94.80;;;;;;5020260;28;19919;-72
2021/05/22 12:03:48;;;;;;;12.07;6.60;;;10.90;94.90;;;;;;5024389;28;20378;-75
2021/05/22 12:06:47;;;;;;;14.32;9.57;;;10.90;95.20;;;;;;5024879;28;20052;-75
2021/05/22 12:09:21;;;;;;;16.13;8.25;;;10.80;95.40;;;;;;5025595;28;20037;-73
2021/05/22 12:12:00;;;;;;;17.27;9.00;;;10.70;95.60;;;;;;5028641;28;20469;-74
2021/05/22 12:14:37;;;;;;;12.38;8.02;;;10.70;95.40;;;;;;5026169;28;20048;-74
2021/05/22 12:17:04;;;;;;;15.63;7.80;;;10.60;95.50;;;;;;5037224;28;20061;-76
2021/05/22 12:19:39;;;;;;;9.68;7.72;;;10.50;95.70;;;;;;5025500;28;20446;-73
2021/05/22 12:22:07;;;;;;;15.52;8.13;;;10.60;95.80;;;;;;5025790;28;20108;-79
2021/05/22 12:24:35;;;;;;;13.63;7.85;;;10.70;95.60;;;;;;5027331;28;20076;-73
2021/05/22 12:27:02;;;;;;;10.55;7.20;;;10.70;95.50;;;;;;5026251;28;20021;-72
2021/05/22 12:29:31;;;;;;;16.70;7.65;;;10.60;95.50;;;;;;5027480;28;20430;-80
2021/05/22 12:32:03;;;;;;;13.15;6.93;;;10.60;95.30;;;;;;5026098;28;20040;-75
2021/05/22 12:34:35;;;;;;;13.20;6.88;;;10.70;95.40;;;;;;5026007;28;20158;-73
2021/05/22 12:37:07;;;;;;;13.43;7.15;;;10.70;95.20;;;;;;5028030;28;20498;-73
2021/05/22 12:39:40;;;;;;;13.77;7.68;;;10.60;95.20;;;;;;5028545;28;20029;-72
2021/05/22 12:42:19;;;;;;;9.63;6.65;;;10.60;95.60;;;;;;5028828;28;20494;-76
2021/05/22 12:44:48;;;;;;;11.10;5.93;;;10.70;95.50;;;;;;5029629;28;20030;-76
2021/05/22 12:47:15;;;;;;;14.70;6.35;;;10.60;95.30;;;;;;5026867;28;20418;-78
2021/05/22 12:50:12;;;;;;;11.30;6.88;;;10.60;95.50;;;;;;5030353;28;20386;-73
2021/05/22 12:52:53;;;;;;;8.50;5.60;;;10.70;95.30;;;;;;5018667;28;20116;-79
2021/05/22 12:55:30;;;;;;;12.82;6.10;;;10.70;95.00;;;;;;5031539;28;20039;-77
2021/05/22 12:58:07;;;;;;;12.88;5.90;;;10.70;95.00;;;;;;5029502;28;20045;-73
2021/05/22 13:00:34;;;;;;;13.68;6.20;;;10.70;95.30;;;;;;5028598;28;20449;-76
2021/05/22 13:03:03;;;;;;;11.98;7.53;;;10.50;95.10;;;;;;5029530;28;20493;-77
2021/05/22 13:05:33;;;;;;;13.30;8.25;;;10.50;95.20;;;;;;5065615;23;20065;-73